createdAt,value
2023-03-10T00:00:09.991Z,10.63
2023-03-10T00:02:45.413Z,10.63
2023-03-10T00:05:17.917Z,10.65
2023-03-10T00:07:46.906Z,10.62
2023-03-10T00:10:32.807Z,10.65
2023-03-10T00:12:59.965Z,10.61
2023-03-10T00:15:28.435Z,10.65
2023-03-10T00:17:57.167Z,10.61
2023-03-10T00:20:30.449Z,10.70
2023-03-10T00:23:10.162Z,10.63
2023-03-10T00:25:43.799Z,10.57
2023-03-10T00:28:12.425Z,10.48
2023-03-10T00:30:40.464Z,10.35
2023-03-10T00:33:08.603Z,10.33
2023-03-10T00:35:37.458Z,10.24
2023-03-10T00:38:19.282Z,10.24
2023-03-10T00:40:46.225Z,10.13
2023-03-10T00:43:17.175Z,10.04
2023-03-10T00:45:45.162Z,10.00
2023-03-10T00:48:14.056Z,9.90
2023-03-10T00:50:45.262Z,9.80
2023-03-10T00:53:13.679Z,9.73
2023-03-10T00:55:45.483Z,9.68
2023-03-10T00:58:16.117Z,9.56
2023-03-10T01:00:45.790Z,9.40
2023-03-10T01:03:16.473Z,9.50
2023-03-10T01:08:26.651Z,9.21
2023-03-10T01:10:58.748Z,9.10
2023-03-10T01:13:41.012Z,9.08
2023-03-10T01:16:11.614Z,8.96
2023-03-10T01:18:50.104Z,8.84
2023-03-10T01:21:36.470Z,8.67
2023-03-10T01:24:05.746Z,8.60
2023-03-10T01:26:35.117Z,8.58
2023-03-10T01:29:06.015Z,8.60
2023-03-10T01:31:46.453Z,8.43
2023-03-10T01:34:23.520Z,8.30
2023-03-10T01:36:57.153Z,8.17
2023-03-10T01:39:29.116Z,8.18
2023-03-10T01:42:00.967Z,8.09
2023-03-10T01:44:28.573Z,8.01
2023-03-10T01:46:57.721Z,7.88
2023-03-10T01:49:32.774Z,7.76
2023-03-10T01:52:19.961Z,7.74
2023-03-10T01:57:50.191Z,7.68
2023-03-10T02:00:20.235Z,7.57
2023-03-10T02:03:22.113Z,7.45
2023-03-10T02:06:02.692Z,7.37
2023-03-10T02:08:47.670Z,7.30
2023-03-10T02:11:24.510Z,7.27
2023-03-10T02:14:08.167Z,7.24
2023-03-10T02:16:40.629Z,7.24
2023-03-10T02:19:21.329Z,7.15
2023-03-10T02:22:21.209Z,7.09
2023-03-10T02:25:07.349Z,6.95
2023-03-10T02:27:37.790Z,6.87
2023-03-10T02:30:10.295Z,6.81
2023-03-10T02:32:51.668Z,6.78
2023-03-10T02:35:26.856Z,6.81
2023-03-10T02:38:06.089Z,6.86
2023-03-10T02:41:00.572Z,6.75
2023-03-10T02:43:45.164Z,6.65
2023-03-10T02:46:14.960Z,6.56
2023-03-10T02:48:48.348Z,6.52
2023-03-10T02:51:45.086Z,6.59
2023-03-10T02:54:18.437Z,6.42
2023-03-10T02:56:47.930Z,6.38
2023-03-10T02:59:17.711Z,6.31
2023-03-10T03:01:45.657Z,6.22
2023-03-10T03:04:19.528Z,6.26
2023-03-10T03:06:49.243Z,6.20
2023-03-10T03:12:06.218Z,6.09
2023-03-10T03:14:38.338Z,6.07
2023-03-10T03:17:17.329Z,6.04
2023-03-10T03:20:04.384Z,6.02
2023-03-10T03:22:36.432Z,6.04
2023-03-10T03:27:59.522Z,6.03
2023-03-10T03:30:34.088Z,5.94
2023-03-10T03:33:04.682Z,5.89
2023-03-10T03:35:38.121Z,5.88
2023-03-10T03:38:16.688Z,5.83
2023-03-10T03:40:48.830Z,5.84
2023-03-10T03:43:18.479Z,5.83
2023-03-10T03:45:48.417Z,5.83
2023-03-10T03:48:17.500Z,5.78
2023-03-10T03:50:46.012Z,5.81
2023-03-10T03:53:15.405Z,5.80
2023-03-10T03:55:54.141Z,5.82
2023-03-10T03:58:23.400Z,5.74
2023-03-10T04:00:55.208Z,5.72
2023-03-10T04:03:27.302Z,5.76
2023-03-10T04:06:01.719Z,5.70
2023-03-10T04:11:18.195Z,5.79
2023-03-10T04:13:53.175Z,5.79
2023-03-10T04:16:30.245Z,5.78
2023-03-10T04:18:58.966Z,5.87
2023-03-10T04:21:26.222Z,5.77
2023-03-10T04:23:52.970Z,5.67
2023-03-10T04:26:24.690Z,5.63
2023-03-10T04:28:53.519Z,5.59
2023-03-10T04:31:21.549Z,5.63
2023-03-10T04:33:48.824Z,5.63
2023-03-10T04:36:16.771Z,5.52
2023-03-10T04:38:43.779Z,5.44
2023-03-10T04:41:11.216Z,5.25
2023-03-10T04:43:39.608Z,5.24
2023-03-10T04:46:08.227Z,5.23
2023-03-10T04:48:35.562Z,5.26
2023-03-10T04:51:06.670Z,5.33
2023-03-10T04:53:34.505Z,5.41
2023-03-10T04:56:04.402Z,5.40
2023-03-10T04:58:31.876Z,5.44
2023-03-10T05:01:03.553Z,5.47
2023-03-10T05:03:30.740Z,5.53
2023-03-10T05:05:58.045Z,5.52
2023-03-10T05:08:24.830Z,5.53
2023-03-10T05:10:52.126Z,5.58
2023-03-10T05:13:19.264Z,5.64
2023-03-10T05:15:47.116Z,5.71
2023-03-10T05:18:14.500Z,5.74
2023-03-10T05:20:42.321Z,5.75
2023-03-10T05:23:11.818Z,5.78
2023-03-10T05:25:40.548Z,5.81
2023-03-10T05:28:08.080Z,5.90
2023-03-10T05:30:35.486Z,5.92
2023-03-10T05:33:03.139Z,5.90
2023-03-10T05:35:33.667Z,5.97
2023-03-10T05:38:00.611Z,6.16
2023-03-10T05:40:28.148Z,6.22
2023-03-10T05:42:57.718Z,6.31
2023-03-10T05:45:25.119Z,6.42
2023-03-10T05:47:52.662Z,6.48
2023-03-10T05:50:20.976Z,6.57
2023-03-10T05:52:47.863Z,6.62
2023-03-10T05:55:16.916Z,6.75
2023-03-10T05:57:44.942Z,6.74
2023-03-10T06:00:12.618Z,6.80
2023-03-10T06:02:40.220Z,6.78
2023-03-10T06:05:11.292Z,6.85
2023-03-10T06:07:39.453Z,6.96
2023-03-10T06:10:06.896Z,7.13
2023-03-10T06:12:35.743Z,7.19
2023-03-10T06:15:02.918Z,7.24
2023-03-10T06:17:31.753Z,7.29
2023-03-10T06:19:58.891Z,7.35
2023-03-10T06:22:26.306Z,7.52
2023-03-10T06:24:53.363Z,7.60
2023-03-10T06:27:23.449Z,7.70
2023-03-10T06:29:58.923Z,7.90
2023-03-10T06:32:26.002Z,8.03
2023-03-10T06:34:53.396Z,8.15
2023-03-10T06:37:20.318Z,8.26
2023-03-10T06:39:49.777Z,8.40
2023-03-10T06:42:16.610Z,8.43
2023-03-10T06:44:45.479Z,8.49
2023-03-10T06:47:13.387Z,8.62
2023-03-10T06:49:40.435Z,8.75
2023-03-10T06:52:07.719Z,8.89
2023-03-10T06:54:34.949Z,9.03
2023-03-10T06:57:02.512Z,9.14
2023-03-10T06:59:35.196Z,9.30
2023-03-10T07:02:02.552Z,9.46
2023-03-10T07:04:30.016Z,9.55
2023-03-10T07:06:57.688Z,9.71
2023-03-10T07:09:27.418Z,9.92
2023-03-10T07:11:54.444Z,10.10
2023-03-10T07:14:21.641Z,10.33
2023-03-10T07:16:51.040Z,10.60
2023-03-10T07:19:18.229Z,10.90
2023-03-10T07:21:47.011Z,11.18
2023-03-10T07:24:14.309Z,11.36
2023-03-10T07:26:44.089Z,11.50
2023-03-10T07:29:11.206Z,11.60
2023-03-10T07:31:38.378Z,11.72
2023-03-10T07:34:05.304Z,11.85
2023-03-10T07:36:32.230Z,12.00
2023-03-10T07:38:59.058Z,12.11
2023-03-10T07:41:26.175Z,12.32
2023-03-10T07:43:54.818Z,12.44
2023-03-10T07:46:22.802Z,12.57
2023-03-10T07:48:50.004Z,12.63
2023-03-10T07:51:16.935Z,12.65
2023-03-10T07:53:43.647Z,12.72
2023-03-10T07:56:12.807Z,12.76
2023-03-10T07:58:40.818Z,12.90
2023-03-10T08:01:14.006Z,13.00
2023-03-10T08:03:41.431Z,13.11
2023-03-10T08:06:08.899Z,13.17
2023-03-10T08:08:35.885Z,13.30
2023-03-10T08:11:10.183Z,13.50
2023-03-10T08:13:38.217Z,13.69
2023-03-10T08:16:06.559Z,13.89
2023-03-10T08:18:34.388Z,14.00
2023-03-10T08:21:05.313Z,14.22
2023-03-10T08:23:33.170Z,14.36
2023-03-10T08:26:08.329Z,14.53
2023-03-10T08:28:37.578Z,14.65
2023-03-10T08:31:14.789Z,14.90
2023-03-10T08:33:45.961Z,15.06
2023-03-10T08:36:20.895Z,15.27
2023-03-10T08:38:48.310Z,15.39
2023-03-10T08:41:22.793Z,15.57
2023-03-10T08:43:51.791Z,15.63
2023-03-10T08:46:21.723Z,15.77
2023-03-10T08:48:48.883Z,15.88
2023-03-10T08:51:16.606Z,15.98
2023-03-10T08:53:47.053Z,16.07
2023-03-10T08:56:16.461Z,16.29
2023-03-10T08:58:47.108Z,16.53
2023-03-10T09:01:16.448Z,16.78
2023-03-10T09:03:46.302Z,16.92
2023-03-10T09:06:17.212Z,17.11
2023-03-10T09:11:32.579Z,17.53
2023-03-10T09:14:12.720Z,17.76
2023-03-10T09:16:40.930Z,17.91
2023-03-10T09:19:11.421Z,18.00
2023-03-10T09:21:40.353Z,18.00
2023-03-10T09:24:10.885Z,18.05
2023-03-10T09:26:42.811Z,18.12
2023-03-10T09:29:12.160Z,18.18
2023-03-10T09:31:46.862Z,18.13
2023-03-10T09:34:14.479Z,18.11
2023-03-10T09:36:41.439Z,18.04
2023-03-10T09:39:08.249Z,18.15
2023-03-10T09:41:53.193Z,18.24
2023-03-10T09:44:23.060Z,18.23
2023-03-10T09:47:08.253Z,18.32
2023-03-10T09:50:14.140Z,18.37
2023-03-10T09:52:54.610Z,18.18
2023-03-10T09:55:42.359Z,18.14
2023-03-10T09:58:39.912Z,18.35
2023-03-10T10:01:16.693Z,18.41
2023-03-10T10:03:53.323Z,18.63
2023-03-10T10:06:34.300Z,18.62
2023-03-10T10:09:07.336Z,18.66
2023-03-10T10:11:37.607Z,18.69
2023-03-10T10:14:29.237Z,18.84
2023-03-10T10:20:23.377Z,18.98
2023-03-10T10:22:50.364Z,19.00
2023-03-10T10:25:25.930Z,18.79
2023-03-10T10:27:55.381Z,18.81
2023-03-10T10:30:34.492Z,18.71
2023-03-10T10:33:15.195Z,18.60
2023-03-10T10:36:01.557Z,18.71
2023-03-10T10:38:30.708Z,18.78
2023-03-10T10:41:18.485Z,18.68
2023-03-10T10:43:50.782Z,18.76
2023-03-10T10:46:26.633Z,18.99
2023-03-10T10:49:22.395Z,19.15
2023-03-10T10:52:06.615Z,19.17
2023-03-10T10:54:39.437Z,19.34
2023-03-10T10:57:19.463Z,19.38
2023-03-10T10:59:46.569Z,19.43
2023-03-10T11:02:40.276Z,19.33
2023-03-10T11:05:17.404Z,19.35
2023-03-10T11:07:45.664Z,19.27
2023-03-10T11:10:26.755Z,19.06
2023-03-10T11:13:10.495Z,18.96
2023-03-10T11:16:04.714Z,18.63
2023-03-10T11:18:39.397Z,18.54
2023-03-10T11:21:18.199Z,18.51
2023-03-10T11:24:23.139Z,18.28
2023-03-10T11:27:24.489Z,18.27
2023-03-10T11:30:00.743Z,18.17
2023-03-10T11:32:45.161Z,18.24
2023-03-10T11:35:39.300Z,18.17
2023-03-10T11:38:37.441Z,18.12
2023-03-10T11:41:21.001Z,17.99
2023-03-10T11:43:57.145Z,17.76
2023-03-10T11:46:31.262Z,17.78
2023-03-10T11:49:06.471Z,17.73
2023-03-10T11:51:48.462Z,17.62
2023-03-10T11:54:19.837Z,17.36
2023-03-10T11:56:50.296Z,17.39
2023-03-10T11:59:27.677Z,17.36
2023-03-10T12:02:10.221Z,17.28
2023-03-10T12:05:07.347Z,17.19
2023-03-10T12:07:44.614Z,16.98
2023-03-10T12:10:12.181Z,16.94
2023-03-10T12:12:44.745Z,16.89
2023-03-10T12:15:21.027Z,16.74
2023-03-10T12:17:51.998Z,16.70
2023-03-10T12:20:19.626Z,16.76
2023-03-10T12:23:01.433Z,16.77
2023-03-10T12:25:28.090Z,16.78
2023-03-10T12:28:16.865Z,16.79
2023-03-10T12:31:10.755Z,16.77
2023-03-10T12:33:43.903Z,16.81
2023-03-10T12:36:30.208Z,16.84
2023-03-10T12:42:49.577Z,16.93
2023-03-10T12:45:31.096Z,16.92
2023-03-10T12:48:10.545Z,16.82
2023-03-10T12:50:57.007Z,16.89
2023-03-10T12:54:33.336Z,16.80
2023-03-10T12:57:50.120Z,16.70
2023-03-10T13:00:38.938Z,16.72
2023-03-10T13:04:17.479Z,16.66
2023-03-10T13:06:47.917Z,16.53
2023-03-10T13:09:33.895Z,16.57
2023-03-10T13:12:05.096Z,16.54
2023-03-10T13:14:44.562Z,16.45
2023-03-10T13:17:26.374Z,16.39
2023-03-10T13:19:59.529Z,16.40
2023-03-10T13:22:27.032Z,16.44
2023-03-10T13:25:12.217Z,16.47
2023-03-10T13:27:42.691Z,16.51
2023-03-10T13:30:24.473Z,16.53
2023-03-10T13:32:53.165Z,16.47
2023-03-10T13:35:53.404Z,16.38
2023-03-10T13:38:22.185Z,16.31
2023-03-10T13:41:16.966Z,16.35
2023-03-10T13:43:50.193Z,16.35
2023-03-10T13:46:20.657Z,16.35
2023-03-10T13:48:51.687Z,16.29
2023-03-10T13:51:35.580Z,16.17
2023-03-10T13:54:36.125Z,16.05
2023-03-10T13:57:34.898Z,16.07
2023-03-10T14:00:10.049Z,16.00
2023-03-10T14:05:48.904Z,15.85
2023-03-10T14:08:22.276Z,15.76
2023-03-10T14:10:49.627Z,15.49
2023-03-10T14:13:42.028Z,15.59
2023-03-10T14:16:10.409Z,15.54
2023-03-10T14:18:39.905Z,15.44
2023-03-10T14:21:33.873Z,15.43
2023-03-10T14:24:07.504Z,15.35
2023-03-10T14:26:34.647Z,15.36
2023-03-10T14:29:04.418Z,15.36
2023-03-10T14:31:31.381Z,15.36
2023-03-10T14:33:58.340Z,15.25
2023-03-10T14:36:29.029Z,15.26
2023-03-10T14:38:56.021Z,15.17
2023-03-10T14:41:34.608Z,15.22
2023-03-10T14:44:17.841Z,15.22
2023-03-10T14:46:51.739Z,15.28
2023-03-10T14:49:28.072Z,15.31
2023-03-10T14:51:58.646Z,15.41
2023-03-10T14:57:13.850Z,15.62
2023-03-10T14:59:58.169Z,15.75
2023-03-10T15:02:47.226Z,15.89
2023-03-10T15:05:45.367Z,15.91
2023-03-10T15:08:14.383Z,15.93
2023-03-10T15:10:42.732Z,15.81
2023-03-10T15:13:13.731Z,15.75
2023-03-10T15:15:44.340Z,15.69
2023-03-10T15:18:14.912Z,15.59
2023-03-10T15:20:42.080Z,15.48
2023-03-10T15:23:09.924Z,15.63
2023-03-10T15:25:49.411Z,15.56
2023-03-10T15:28:24.428Z,15.40
2023-03-10T15:30:52.301Z,15.34
2023-03-10T15:33:25.674Z,15.35
2023-03-10T15:35:56.151Z,15.35
2023-03-10T15:38:23.391Z,15.25
2023-03-10T15:40:51.256Z,15.08
2023-03-10T15:43:18.032Z,15.15
2023-03-10T15:45:52.264Z,14.97
2023-03-10T15:48:19.367Z,14.88
2023-03-10T15:50:54.996Z,14.84
2023-03-10T15:53:24.182Z,14.69
2023-03-10T15:55:53.917Z,14.72
2023-03-10T15:58:54.683Z,14.73
2023-03-10T16:01:23.360Z,14.73
2023-03-10T16:03:50.567Z,14.62
2023-03-10T16:06:18.898Z,14.61
2023-03-10T16:09:27.131Z,14.61
2023-03-10T16:11:57.594Z,14.66
2023-03-10T16:14:27.596Z,14.61
2023-03-10T16:17:01.614Z,14.68
2023-03-10T16:19:31.725Z,14.57
2023-03-10T16:25:10.938Z,14.57
2023-03-10T16:28:16.065Z,14.59
2023-03-10T16:31:09.045Z,14.57
2023-03-10T16:33:46.552Z,14.54
2023-03-10T16:39:05.233Z,14.56
2023-03-10T16:45:15.951Z,14.60
2023-03-10T16:48:24.479Z,14.54
2023-03-10T16:50:44.007Z,14.47
2023-03-10T16:53:21.716Z,14.46
2023-03-10T16:55:55.154Z,14.57
2023-03-10T16:58:26.032Z,14.57
2023-03-10T17:01:00.598Z,14.51
2023-03-10T17:04:39.392Z,14.45
2023-03-10T17:07:08.291Z,14.42
2023-03-10T17:09:42.652Z,14.40
2023-03-10T17:12:11.298Z,14.28
2023-03-10T17:14:42.940Z,14.26
2023-03-10T17:17:23.219Z,14.20
2023-03-10T17:20:14.236Z,14.23
2023-03-10T17:22:54.408Z,14.22
2023-03-10T17:25:58.083Z,14.22
2023-03-10T17:28:25.699Z,14.17
2023-03-10T17:31:36.326Z,14.10
2023-03-10T17:35:09.008Z,14.14
2023-03-10T17:37:37.280Z,14.12
2023-03-10T17:43:33.256Z,14.19
2023-03-10T17:46:13.980Z,14.17
2023-03-10T17:48:43.033Z,14.27
2023-03-10T17:51:44.969Z,14.26
2023-03-10T17:54:42.355Z,14.27
2023-03-10T18:00:23.025Z,14.22
2023-03-10T18:03:07.158Z,14.17
2023-03-10T18:05:50.790Z,14.14
2023-03-10T18:08:20.876Z,14.12
2023-03-10T18:11:10.672Z,14.02
2023-03-10T18:15:33.736Z,14.02
2023-03-10T18:24:35.154Z,13.93
2023-03-10T18:31:25.854Z,14.06
2023-03-10T18:35:14.208Z,14.00
2023-03-10T18:37:47.388Z,13.86
2023-03-10T18:44:25.534Z,13.56
2023-03-10T18:46:52.578Z,13.46
2023-03-10T18:49:20.259Z,13.49
2023-03-10T18:51:53.762Z,13.44
2023-03-10T18:54:24.868Z,13.36
2023-03-10T18:57:00.922Z,13.37
2023-03-10T19:02:31.805Z,13.40
2023-03-10T19:05:34.134Z,13.39
2023-03-10T19:08:18.555Z,13.33
2023-03-10T19:08:45.336Z,13.42
2023-03-10T19:11:11.086Z,13.32
2023-03-10T19:13:55.174Z,13.19
2023-03-10T19:19:54.400Z,13.13
2023-03-10T19:21:02.685Z,13.14
2023-03-10T19:26:27.195Z,13.03
2023-03-10T19:32:51.610Z,12.92
2023-03-10T19:35:38.044Z,12.91
2023-03-10T19:38:18.001Z,12.83
2023-03-10T19:40:54.094Z,12.83
2023-03-10T19:47:32.684Z,12.58
2023-03-10T19:49:01.938Z,12.95
2023-03-10T19:50:33.735Z,12.55
2023-03-10T19:53:46.943Z,12.55
2023-03-10T19:56:41.648Z,12.59
2023-03-10T20:05:49.671Z,12.88
2023-03-10T20:08:23.430Z,12.99
2023-03-10T20:19:33.502Z,13.18
2023-03-10T20:27:52.822Z,13.15
2023-03-10T20:34:27.904Z,13.13
2023-03-10T20:37:27.447Z,13.19
2023-03-10T20:53:58.403Z,13.15
2023-03-10T20:56:25.190Z,13.14
2023-03-10T20:59:00.315Z,13.16
2023-03-10T21:01:55.702Z,13.20
2023-03-10T21:04:26.871Z,13.22
2023-03-10T21:06:59.002Z,13.16
2023-03-10T21:11:07.450Z,13.20
2023-03-10T21:12:21.874Z,13.17
2023-03-10T21:15:25.068Z,13.18
2023-03-10T21:18:53.783Z,13.23
2023-03-10T21:22:44.540Z,13.25
2023-03-10T21:24:31.789Z,13.22
2023-03-10T21:27:36.012Z,13.17
2023-03-10T21:38:06.237Z,13.17
2023-03-10T21:55:41.788Z,12.93
2023-03-10T21:58:33.381Z,13.00
2023-03-10T22:02:26.572Z,13.04
2023-03-10T22:05:12.203Z,12.93
2023-03-10T22:08:20.243Z,12.92
2023-03-10T22:14:06.156Z,12.72
2023-03-10T22:17:05.673Z,12.70
2023-03-10T22:19:33.630Z,12.73
2023-03-10T22:22:10.559Z,12.67
2023-03-10T22:25:08.765Z,12.63
2023-03-10T22:28:37.682Z,12.50
2023-03-10T22:32:03.943Z,12.54
2023-03-10T22:37:37.022Z,12.55
2023-03-10T22:40:14.101Z,12.52
2023-03-10T22:43:22.292Z,12.41
2023-03-10T22:46:21.150Z,12.32
2023-03-10T22:48:58.202Z,12.23
2023-03-10T22:51:25.385Z,12.13
2023-03-10T22:55:22.344Z,12.08
2023-03-10T22:57:09.002Z,12.14
2023-03-10T23:00:04.396Z,12.18
2023-03-10T23:03:27.016Z,12.20
2023-03-10T23:05:58.676Z,12.20
2023-03-10T23:09:05.279Z,12.22
2023-03-10T23:12:13.294Z,12.17
2023-03-10T23:14:42.283Z,12.17
2023-03-10T23:17:09.669Z,12.15
2023-03-10T23:21:05.842Z,12.19
2023-03-10T23:25:39.498Z,12.15
2023-03-10T23:26:53.253Z,12.18
2023-03-10T23:32:58.923Z,12.18
2023-03-10T23:34:17.713Z,12.24
2023-03-10T23:39:28.445Z,12.14
2023-03-10T23:42:13.583Z,12.17
2023-03-10T23:44:46.150Z,12.18
2023-03-10T23:52:27.477Z,12.11
2023-03-10T23:59:48.311Z,12.06
